KART/ART METAR and TAF weather

Enter ICAO airport designator
Station Type Date Time Source
KART METAR 2020/06/06 18:56 UTC NOAA

KART 061856Z AUTO 25012G23KT 10SM CLR 23/12 A2979 RMK AO2 LTG DSNT NE SLP084 T02330117


Station Type Date Time Source
KART Decoded METAR 2020/06/06 18:56 UTC NOAA

WATERTOWN INTERNATIONAL AIRPORT, NY, United States (KART) 43-59N 076-02W 100M
Jun 06, 2020 - 02:56 PM EDT / 2020.06.06 1856 UTC
Wind: from the WSW (250 degrees) at 14 MPH (12 KT) gusting to 26 MPH (23 KT):0
Visibility: 10 mile(s):0
Sky conditions: clear
Weather: Lightning observed
Temperature: 73.9 F (23.3 C)
Dew Point: 53.1 F (11.7 C)
Relative Humidity: 48%
Pressure (altimeter): 29.79 in. Hg (1008 hPa)
ob: KART 061856Z AUTO 25012G23KT 10SM CLR 23/12 A2979 RMK AO2 LTG DSNT NE SLP084 T02330117
cycle: 19

Station Type Date Time Source
KART TAF 2020/06/06 20:48 UTC NOAA

TAF
AMD KART 061945Z 0620/0718 25012G20KT 4SM -TSRA SCT025 BKN050CB
TEMPO 0620/0621 30020G35KT 2SM TSRA BR
FM062100 30010KT P6SM VCSH BKN050
FM062300 29006KT P6SM BKN040
FM070100 30006KT P6SM BKN050

Example: see airport list